sensor_id;sensor_type;location;lat;lon;timestamp;P1;durP1;ratioP1;P2;durP2;ratioP2
77302;SDS011;66363;49.828;7.856;2023-05-27T00:00:02;5.78;;;1.42;;
77302;SDS011;66363;49.828;7.856;2023-05-27T00:02:29;1.90;;;1.20;;
77302;SDS011;66363;49.828;7.856;2023-05-27T00:04:54;3.42;;;1.45;;
77302;SDS011;66363;49.828;7.856;2023-05-27T00:07:21;2.00;;;1.23;;
77302;SDS011;66363;49.828;7.856;2023-05-27T00:09:47;2.67;;;1.70;;
77302;SDS011;66363;49.828;7.856;2023-05-27T00:12:13;2.70;;;1.63;;
77302;SDS011;66363;49.828;7.856;2023-05-27T00:14:38;4.60;;;1.55;;
77302;SDS011;66363;49.828;7.856;2023-05-27T00:17:04;2.33;;;1.25;;
77302;SDS011;66363;49.828;7.856;2023-05-27T00:19:30;2.65;;;1.17;;
77302;SDS011;66363;49.828;7.856;2023-05-27T00:21:55;4.72;;;1.55;;
77302;SDS011;66363;49.828;7.856;2023-05-27T00:24:23;3.28;;;1.58;;
77302;SDS011;66363;49.828;7.856;2023-05-27T00:26:48;3.58;;;1.60;;
77302;SDS011;66363;49.828;7.856;2023-05-27T00:29:15;4.07;;;1.98;;
77302;SDS011;66363;49.828;7.856;2023-05-27T00:31:41;1.45;;;0.80;;
77302;SDS011;66363;49.828;7.856;2023-05-27T00:34:07;2.83;;;1.25;;
77302;SDS011;66363;49.828;7.856;2023-05-27T00:36:32;2.00;;;1.17;;
77302;SDS011;66363;49.828;7.856;2023-05-27T00:38:58;1.73;;;1.10;;
77302;SDS011;66363;49.828;7.856;2023-05-27T00:43:51;3.90;;;1.15;;
77302;SDS011;66363;49.828;7.856;2023-05-27T00:46:17;1.67;;;1.25;;
77302;SDS011;66363;49.828;7.856;2023-05-27T00:48:49;2.70;;;1.40;;
77302;SDS011;66363;49.828;7.856;2023-05-27T00:51:15;2.42;;;1.15;;
77302;SDS011;66363;49.828;7.856;2023-05-27T00:53:41;3.42;;;1.13;;
77302;SDS011;66363;49.828;7.856;2023-05-27T00:56:08;4.00;;;1.63;;
77302;SDS011;66363;49.828;7.856;2023-05-27T01:01:01;4.07;;;1.45;;
77302;SDS011;66363;49.828;7.856;2023-05-27T01:03:27;3.13;;;0.73;;
77302;SDS011;66363;49.828;7.856;2023-05-27T01:08:24;1.23;;;1.08;;
77302;SDS011;66363;49.828;7.856;2023-05-27T01:10:56;1.63;;;1.20;;
77302;SDS011;66363;49.828;7.856;2023-05-27T01:13:25;2.80;;;1.25;;
77302;SDS011;66363;49.828;7.856;2023-05-27T01:15:57;2.72;;;1.58;;
77302;SDS011;66363;49.828;7.856;2023-05-27T01:18:25;0.63;;;0.63;;
77302;SDS011;66363;49.828;7.856;2023-05-27T01:20:53;2.20;;;1.33;;
77302;SDS011;66363;49.828;7.856;2023-05-27T01:23:26;4.55;;;1.67;;
77302;SDS011;66363;49.828;7.856;2023-05-27T01:25:52;3.65;;;1.80;;
77302;SDS011;66363;49.828;7.856;2023-05-27T01:28:17;4.65;;;1.40;;
77302;SDS011;66363;49.828;7.856;2023-05-27T01:30:43;2.05;;;1.30;;
77302;SDS011;66363;49.828;7.856;2023-05-27T01:33:09;4.32;;;1.27;;
77302;SDS011;66363;49.828;7.856;2023-05-27T01:35:40;3.05;;;1.50;;
77302;SDS011;66363;49.828;7.856;2023-05-27T01:38:09;2.95;;;1.60;;
77302;SDS011;66363;49.828;7.856;2023-05-27T01:40:39;1.92;;;1.40;;
77302;SDS011;66363;49.828;7.856;2023-05-27T01:43:06;3.33;;;1.35;;
77302;SDS011;66363;49.828;7.856;2023-05-27T01:45:32;2.08;;;1.13;;
77302;SDS011;66363;49.828;7.856;2023-05-27T01:47:58;2.55;;;1.30;;
77302;SDS011;66363;49.828;7.856;2023-05-27T01:50:23;2.72;;;1.42;;
77302;SDS011;66363;49.828;7.856;2023-05-27T01:52:49;3.72;;;1.50;;
77302;SDS011;66363;49.828;7.856;2023-05-27T01:55:15;2.90;;;1.50;;
77302;SDS011;66363;49.828;7.856;2023-05-27T01:57:42;6.53;;;1.75;;
77302;SDS011;66363;49.828;7.856;2023-05-27T02:00:08;3.05;;;1.20;;
77302;SDS011;66363;49.828;7.856;2023-05-27T02:02:34;2.90;;;1.27;;
77302;SDS011;66363;49.828;7.856;2023-05-27T02:05:00;1.73;;;1.40;;
77302;SDS011;66363;49.828;7.856;2023-05-27T02:07:25;5.43;;;1.55;;
77302;SDS011;66363;49.828;7.856;2023-05-27T02:09:51;1.80;;;1.33;;
77302;SDS011;66363;49.828;7.856;2023-05-27T02:12:16;3.38;;;1.33;;
77302;SDS011;66363;49.828;7.856;2023-05-27T02:14:43;5.70;;;1.63;;
77302;SDS011;66363;49.828;7.856;2023-05-27T02:17:09;6.43;;;1.67;;
77302;SDS011;66363;49.828;7.856;2023-05-27T02:19:35;2.45;;;1.23;;
77302;SDS011;66363;49.828;7.856;2023-05-27T02:22:00;6.05;;;1.52;;
77302;SDS011;66363;49.828;7.856;2023-05-27T02:24:26;5.32;;;1.23;;
77302;SDS011;66363;49.828;7.856;2023-05-27T02:26:51;2.88;;;1.30;;
77302;SDS011;66363;49.828;7.856;2023-05-27T02:29:17;2.28;;;1.20;;
77302;SDS011;66363;49.828;7.856;2023-05-27T02:31:44;2.08;;;1.13;;
77302;SDS011;66363;49.828;7.856;2023-05-27T02:34:10;3.63;;;1.63;;
77302;SDS011;66363;49.828;7.856;2023-05-27T02:36:35;3.00;;;1.35;;
77302;SDS011;66363;49.828;7.856;2023-05-27T02:39:01;3.30;;;1.13;;
77302;SDS011;66363;49.828;7.856;2023-05-27T02:41:27;2.65;;;1.58;;
77302;SDS011;66363;49.828;7.856;2023-05-27T02:43:53;4.32;;;1.25;;
77302;SDS011;66363;49.828;7.856;2023-05-27T02:46:19;3.47;;;1.60;;
77302;SDS011;66363;49.828;7.856;2023-05-27T02:48:46;4.13;;;1.55;;
77302;SDS011;66363;49.828;7.856;2023-05-27T02:51:12;1.90;;;1.50;;
77302;SDS011;66363;49.828;7.856;2023-05-27T02:53:38;4.00;;;1.70;;
77302;SDS011;66363;49.828;7.856;2023-05-27T02:56:03;5.50;;;1.73;;
77302;SDS011;66363;49.828;7.856;2023-05-27T03:00:55;3.72;;;1.40;;
77302;SDS011;66363;49.828;7.856;2023-05-27T03:03:20;5.38;;;1.63;;
77302;SDS011;66363;49.828;7.856;2023-05-27T03:05:47;2.50;;;1.65;;
77302;SDS011;66363;49.828;7.856;2023-05-27T03:08:13;4.00;;;1.40;;
77302;SDS011;66363;49.828;7.856;2023-05-27T03:10:39;2.60;;;1.73;;
77302;SDS011;66363;49.828;7.856;2023-05-27T03:13:04;3.97;;;1.30;;
77302;SDS011;66363;49.828;7.856;2023-05-27T03:15:30;4.03;;;1.90;;
77302;SDS011;66363;49.828;7.856;2023-05-27T03:17:55;1.30;;;0.77;;
77302;SDS011;66363;49.828;7.856;2023-05-27T03:20:21;3.17;;;1.17;;
77302;SDS011;66363;49.828;7.856;2023-05-27T03:22:48;2.38;;;1.13;;
77302;SDS011;66363;49.828;7.856;2023-05-27T03:25:14;3.78;;;1.75;;
77302;SDS011;66363;49.828;7.856;2023-05-27T03:27:40;3.60;;;1.23;;
77302;SDS011;66363;49.828;7.856;2023-05-27T03:30:06;2.35;;;1.20;;
77302;SDS011;66363;49.828;7.856;2023-05-27T03:32:32;2.58;;;1.15;;
77302;SDS011;66363;49.828;7.856;2023-05-27T03:34:58;2.65;;;1.13;;
77302;SDS011;66363;49.828;7.856;2023-05-27T03:37:24;4.53;;;1.50;;
77302;SDS011;66363;49.828;7.856;2023-05-27T03:39:51;1.95;;;1.17;;
77302;SDS011;66363;49.828;7.856;2023-05-27T03:42:18;3.03;;;1.40;;
77302;SDS011;66363;49.828;7.856;2023-05-27T03:44:44;4.05;;;1.58;;
77302;SDS011;66363;49.828;7.856;2023-05-27T03:47:10;2.42;;;1.40;;
77302;SDS011;66363;49.828;7.856;2023-05-27T03:49:35;5.35;;;1.70;;
77302;SDS011;66363;49.828;7.856;2023-05-27T03:52:01;4.82;;;1.80;;
77302;SDS011;66363;49.828;7.856;2023-05-27T03:54:27;3.03;;;1.50;;
77302;SDS011;66363;49.828;7.856;2023-05-27T03:56:54;3.53;;;1.83;;
77302;SDS011;66363;49.828;7.856;2023-05-27T03:59:19;3.40;;;1.75;;
77302;SDS011;66363;49.828;7.856;2023-05-27T04:01:45;6.78;;;1.92;;
77302;SDS011;66363;49.828;7.856;2023-05-27T04:04:10;2.63;;;1.15;;
77302;SDS011;66363;49.828;7.856;2023-05-27T04:06:36;2.22;;;1.15;;
77302;SDS011;66363;49.828;7.856;2023-05-27T04:09:02;2.05;;;1.30;;
77302;SDS011;66363;49.828;7.856;2023-05-27T04:11:27;3.03;;;1.20;;
77302;SDS011;66363;49.828;7.856;2023-05-27T04:13:54;4.72;;;1.40;;
77302;SDS011;66363;49.828;7.856;2023-05-27T04:16:20;6.93;;;1.50;;
77302;SDS011;66363;49.828;7.856;2023-05-27T04:18:46;2.28;;;1.33;;
77302;SDS011;66363;49.828;7.856;2023-05-27T04:21:12;4.30;;;1.63;;
77302;SDS011;66363;49.828;7.856;2023-05-27T04:23:37;3.13;;;1.20;;
77302;SDS011;66363;49.828;7.856;2023-05-27T04:26:03;4.28;;;1.63;;
77302;SDS011;66363;49.828;7.856;2023-05-27T04:28:28;2.38;;;1.30;;
77302;SDS011;66363;49.828;7.856;2023-05-27T04:30:55;2.20;;;1.42;;
77302;SDS011;66363;49.828;7.856;2023-05-27T04:33:21;3.60;;;1.60;;
77302;SDS011;66363;49.828;7.856;2023-05-27T04:35:47;6.50;;;2.13;;
77302;SDS011;66363;49.828;7.856;2023-05-27T04:38:12;4.00;;;1.70;;
77302;SDS011;66363;49.828;7.856;2023-05-27T04:40:38;2.58;;;1.25;;
77302;SDS011;66363;49.828;7.856;2023-05-27T04:43:03;3.00;;;1.60;;
77302;SDS011;66363;49.828;7.856;2023-05-27T04:45:29;4.40;;;1.65;;
77302;SDS011;66363;49.828;7.856;2023-05-27T04:47:56;4.05;;;1.52;;
77302;SDS011;66363;49.828;7.856;2023-05-27T04:50:21;4.65;;;1.73;;
77302;SDS011;66363;49.828;7.856;2023-05-27T04:52:47;2.90;;;1.42;;
77302;SDS011;66363;49.828;7.856;2023-05-27T04:55:13;4.35;;;1.90;;
77302;SDS011;66363;49.828;7.856;2023-05-27T04:57:38;2.90;;;1.50;;
77302;SDS011;66363;49.828;7.856;2023-05-27T05:00:04;3.45;;;1.92;;
77302;SDS011;66363;49.828;7.856;2023-05-27T05:02:33;4.18;;;1.40;;
77302;SDS011;66363;49.828;7.856;2023-05-27T05:05:01;1.90;;;1.10;;
77302;SDS011;66363;49.828;7.856;2023-05-27T05:07:27;2.85;;;1.52;;
77302;SDS011;66363;49.828;7.856;2023-05-27T05:09:53;8.98;;;1.45;;
77302;SDS011;66363;49.828;7.856;2023-05-27T05:12:19;2.88;;;1.58;;
77302;SDS011;66363;49.828;7.856;2023-05-27T05:14:44;1.85;;;1.15;;
77302;SDS011;66363;49.828;7.856;2023-05-27T05:17:10;4.18;;;1.70;;
77302;SDS011;66363;49.828;7.856;2023-05-27T05:19:36;3.20;;;1.85;;
77302;SDS011;66363;49.828;7.856;2023-05-27T05:22:03;5.88;;;1.90;;
77302;SDS011;66363;49.828;7.856;2023-05-27T05:24:29;5.40;;;1.70;;
77302;SDS011;66363;49.828;7.856;2023-05-27T05:26:54;2.45;;;1.75;;
77302;SDS011;66363;49.828;7.856;2023-05-27T05:29:20;4.05;;;1.55;;
77302;SDS011;66363;49.828;7.856;2023-05-27T05:31:45;7.03;;;1.95;;
77302;SDS011;66363;49.828;7.856;2023-05-27T05:34:11;4.07;;;1.52;;
77302;SDS011;66363;49.828;7.856;2023-05-27T05:36:37;5.53;;;1.90;;
77302;SDS011;66363;49.828;7.856;2023-05-27T05:39:04;6.38;;;1.65;;
77302;SDS011;66363;49.828;7.856;2023-05-27T05:41:29;4.32;;;1.85;;
77302;SDS011;66363;49.828;7.856;2023-05-27T05:43:55;3.03;;;1.55;;
77302;SDS011;66363;49.828;7.856;2023-05-27T05:46:21;4.03;;;1.63;;
77302;SDS011;66363;49.828;7.856;2023-05-27T05:48:46;3.30;;;1.38;;
77302;SDS011;66363;49.828;7.856;2023-05-27T05:51:12;2.75;;;1.50;;
77302;SDS011;66363;49.828;7.856;2023-05-27T05:53:38;6.68;;;1.95;;
77302;SDS011;66363;49.828;7.856;2023-05-27T05:56:05;2.05;;;1.15;;
77302;SDS011;66363;49.828;7.856;2023-05-27T05:58:31;3.90;;;1.45;;
77302;SDS011;66363;49.828;7.856;2023-05-27T06:00:57;2.75;;;1.48;;
77302;SDS011;66363;49.828;7.856;2023-05-27T06:03:22;5.07;;;1.73;;
77302;SDS011;66363;49.828;7.856;2023-05-27T06:05:48;3.45;;;0.98;;
77302;SDS011;66363;49.828;7.856;2023-05-27T06:08:13;2.25;;;1.10;;
77302;SDS011;66363;49.828;7.856;2023-05-27T06:10:39;5.50;;;1.33;;
77302;SDS011;66363;49.828;7.856;2023-05-27T06:13:06;4.43;;;2.00;;
77302;SDS011;66363;49.828;7.856;2023-05-27T06:15:32;3.20;;;1.48;;
77302;SDS011;66363;49.828;7.856;2023-05-27T06:17:57;2.25;;;1.42;;
77302;SDS011;66363;49.828;7.856;2023-05-27T06:20:24;6.78;;;1.48;;
77302;SDS011;66363;49.828;7.856;2023-05-27T06:22:49;1.80;;;1.25;;
77302;SDS011;66363;49.828;7.856;2023-05-27T06:25:15;7.60;;;1.85;;
77302;SDS011;66363;49.828;7.856;2023-05-27T06:27:40;3.63;;;2.05;;
77302;SDS011;66363;49.828;7.856;2023-05-27T06:30:08;2.92;;;1.30;;
77302;SDS011;66363;49.828;7.856;2023-05-27T06:32:34;2.88;;;1.35;;
77302;SDS011;66363;49.828;7.856;2023-05-27T06:35:03;4.50;;;1.80;;
77302;SDS011;66363;49.828;7.856;2023-05-27T06:37:29;5.18;;;1.58;;
77302;SDS011;66363;49.828;7.856;2023-05-27T06:39:54;3.53;;;1.50;;
77302;SDS011;66363;49.828;7.856;2023-05-27T06:42:20;2.17;;;1.25;;
77302;SDS011;66363;49.828;7.856;2023-05-27T06:44:46;3.83;;;1.52;;
77302;SDS011;66363;49.828;7.856;2023-05-27T06:47:13;3.97;;;1.40;;
77302;SDS011;66363;49.828;7.856;2023-05-27T06:49:38;2.75;;;1.60;;
77302;SDS011;66363;49.828;7.856;2023-05-27T06:52:04;4.05;;;1.48;;
77302;SDS011;66363;49.828;7.856;2023-05-27T06:54:30;2.20;;;1.77;;
77302;SDS011;66363;49.828;7.856;2023-05-27T06:56:58;3.97;;;1.45;;
77302;SDS011;66363;49.828;7.856;2023-05-27T06:59:24;2.67;;;1.40;;
77302;SDS011;66363;49.828;7.856;2023-05-27T07:01:49;1.85;;;1.40;;
77302;SDS011;66363;49.828;7.856;2023-05-27T07:04:16;4.18;;;1.20;;
77302;SDS011;66363;49.828;7.856;2023-05-27T07:06:42;4.20;;;1.80;;
77302;SDS011;66363;49.828;7.856;2023-05-27T07:11:33;3.53;;;1.65;;
77302;SDS011;66363;49.828;7.856;2023-05-27T07:13:59;2.80;;;1.30;;
77302;SDS011;66363;49.828;7.856;2023-05-27T07:16:25;2.72;;;1.60;;
77302;SDS011;66363;49.828;7.856;2023-05-27T07:18:50;3.92;;;1.58;;
77302;SDS011;66363;49.828;7.856;2023-05-27T07:21:17;3.40;;;1.67;;
77302;SDS011;66363;49.828;7.856;2023-05-27T07:23:43;4.70;;;1.42;;
77302;SDS011;66363;49.828;7.856;2023-05-27T07:26:09;5.03;;;1.50;;
77302;SDS011;66363;49.828;7.856;2023-05-27T07:28:34;3.20;;;1.10;;
77302;SDS011;66363;49.828;7.856;2023-05-27T07:31:00;7.78;;;2.45;;
77302;SDS011;66363;49.828;7.856;2023-05-27T07:35:51;3.00;;;1.67;;
77302;SDS011;66363;49.828;7.856;2023-05-27T07:38:18;2.83;;;1.33;;
77302;SDS011;66363;49.828;7.856;2023-05-27T07:40:44;5.70;;;2.03;;
77302;SDS011;66363;49.828;7.856;2023-05-27T07:43:09;5.63;;;1.42;;
77302;SDS011;66363;49.828;7.856;2023-05-27T07:45:35;2.13;;;1.55;;
77302;SDS011;66363;49.828;7.856;2023-05-27T07:50:26;3.97;;;1.90;;
77302;SDS011;66363;49.828;7.856;2023-05-27T07:52:51;2.05;;;1.58;;
77302;SDS011;66363;49.828;7.856;2023-05-27T07:57:44;3.30;;;1.52;;
77302;SDS011;66363;49.828;7.856;2023-05-27T08:00:10;5.05;;;1.80;;
77302;SDS011;66363;49.828;7.856;2023-05-27T08:02:36;6.03;;;1.58;;
77302;SDS011;66363;49.828;7.856;2023-05-27T08:05:02;2.30;;;1.60;;
77302;SDS011;66363;49.828;7.856;2023-05-27T08:07:28;3.72;;;1.70;;
77302;SDS011;66363;49.828;7.856;2023-05-27T08:12:20;3.83;;;1.60;;
77302;SDS011;66363;49.828;7.856;2023-05-27T08:14:46;2.10;;;1.30;;
77302;SDS011;66363;49.828;7.856;2023-05-27T08:19:37;5.50;;;1.92;;
77302;SDS011;66363;49.828;7.856;2023-05-27T08:24:28;3.50;;;1.67;;
77302;SDS011;66363;49.828;7.856;2023-05-27T08:26:57;4.07;;;2.08;;
77302;SDS011;66363;49.828;7.856;2023-05-27T08:31:49;4.03;;;1.42;;
77302;SDS011;66363;49.828;7.856;2023-05-27T08:36:40;3.53;;;1.77;;
77302;SDS011;66363;49.828;7.856;2023-05-27T08:41:31;4.67;;;1.63;;
77302;SDS011;66363;49.828;7.856;2023-05-27T08:43:57;1.77;;;1.17;;
77302;SDS011;66363;49.828;7.856;2023-05-27T08:46:26;3.42;;;1.80;;
77302;SDS011;66363;49.828;7.856;2023-05-27T08:48:54;4.95;;;1.65;;
77302;SDS011;66363;49.828;7.856;2023-05-27T08:51:20;4.60;;;1.98;;
77302;SDS011;66363;49.828;7.856;2023-05-27T08:56:11;5.10;;;1.95;;
77302;SDS011;66363;49.828;7.856;2023-05-27T08:58:40;5.70;;;1.77;;
77302;SDS011;66363;49.828;7.856;2023-05-27T09:01:08;5.07;;;1.83;;
77302;SDS011;66363;49.828;7.856;2023-05-27T09:03:35;4.30;;;2.33;;
77302;SDS011;66363;49.828;7.856;2023-05-27T09:06:02;5.88;;;2.60;;
77302;SDS011;66363;49.828;7.856;2023-05-27T09:08:27;3.20;;;1.90;;
77302;SDS011;66363;49.828;7.856;2023-05-27T09:10:53;7.68;;;2.15;;
77302;SDS011;66363;49.828;7.856;2023-05-27T09:13:25;2.90;;;1.65;;
77302;SDS011;66363;49.828;7.856;2023-05-27T09:15:56;4.93;;;2.13;;
77302;SDS011;66363;49.828;7.856;2023-05-27T09:18:24;7.78;;;2.40;;
77302;SDS011;66363;49.828;7.856;2023-05-27T09:20:54;3.25;;;2.05;;
77302;SDS011;66363;49.828;7.856;2023-05-27T09:23:20;4.53;;;1.77;;
77302;SDS011;66363;49.828;7.856;2023-05-27T09:25:46;5.97;;;2.45;;
77302;SDS011;66363;49.828;7.856;2023-05-27T09:28:11;4.35;;;2.20;;
77302;SDS011;66363;49.828;7.856;2023-05-27T09:30:37;3.88;;;1.77;;
77302;SDS011;66363;49.828;7.856;2023-05-27T09:33:03;3.67;;;2.30;;
77302;SDS011;66363;49.828;7.856;2023-05-27T09:35:29;2.90;;;2.20;;
77302;SDS011;66363;49.828;7.856;2023-05-27T09:38:04;3.88;;;2.20;;
77302;SDS011;66363;49.828;7.856;2023-05-27T09:40:30;5.05;;;2.00;;
77302;SDS011;66363;49.828;7.856;2023-05-27T09:42:56;4.63;;;2.58;;
77302;SDS011;66363;49.828;7.856;2023-05-27T09:45:22;5.53;;;2.53;;
77302;SDS011;66363;49.828;7.856;2023-05-27T09:47:50;4.75;;;2.80;;
77302;SDS011;66363;49.828;7.856;2023-05-27T09:50:17;3.85;;;2.42;;
77302;SDS011;66363;49.828;7.856;2023-05-27T09:52:43;8.68;;;4.32;;
77302;SDS011;66363;49.828;7.856;2023-05-27T09:55:11;5.43;;;2.70;;
77302;SDS011;66363;49.828;7.856;2023-05-27T09:57:38;5.70;;;2.08;;
77302;SDS011;66363;49.828;7.856;2023-05-27T10:00:05;4.88;;;2.28;;
77302;SDS011;66363;49.828;7.856;2023-05-27T10:02:32;6.40;;;2.40;;
77302;SDS011;66363;49.828;7.856;2023-05-27T10:05:00;6.95;;;2.95;;
77302;SDS011;66363;49.828;7.856;2023-05-27T10:07:28;6.80;;;2.53;;
77302;SDS011;66363;49.828;7.856;2023-05-27T10:09:54;3.33;;;2.10;;
77302;SDS011;66363;49.828;7.856;2023-05-27T10:12:21;5.60;;;2.40;;
77302;SDS011;66363;49.828;7.856;2023-05-27T10:14:47;6.88;;;2.38;;
77302;SDS011;66363;49.828;7.856;2023-05-27T10:17:12;6.20;;;2.33;;
77302;SDS011;66363;49.828;7.856;2023-05-27T10:19:48;4.40;;;2.22;;
77302;SDS011;66363;49.828;7.856;2023-05-27T10:22:18;3.53;;;2.10;;
77302;SDS011;66363;49.828;7.856;2023-05-27T10:24:43;3.83;;;2.47;;
77302;SDS011;66363;49.828;7.856;2023-05-27T10:27:11;4.28;;;3.08;;
77302;SDS011;66363;49.828;7.856;2023-05-27T10:29:38;3.75;;;2.42;;
77302;SDS011;66363;49.828;7.856;2023-05-27T10:32:04;4.07;;;2.45;;
77302;SDS011;66363;49.828;7.856;2023-05-27T10:34:34;5.45;;;2.67;;
77302;SDS011;66363;49.828;7.856;2023-05-27T10:37:00;3.70;;;2.35;;
77302;SDS011;66363;49.828;7.856;2023-05-27T10:39:25;5.68;;;2.80;;
77302;SDS011;66363;49.828;7.856;2023-05-27T10:41:52;4.55;;;2.55;;
77302;SDS011;66363;49.828;7.856;2023-05-27T10:44:25;3.47;;;2.65;;
77302;SDS011;66363;49.828;7.856;2023-05-27T10:46:58;4.57;;;2.30;;
77302;SDS011;66363;49.828;7.856;2023-05-27T10:49:25;3.55;;;2.28;;
77302;SDS011;66363;49.828;7.856;2023-05-27T10:51:51;5.50;;;2.85;;
77302;SDS011;66363;49.828;7.856;2023-05-27T10:54:18;3.35;;;2.17;;
77302;SDS011;66363;49.828;7.856;2023-05-27T10:56:47;4.07;;;2.40;;
77302;SDS011;66363;49.828;7.856;2023-05-27T10:59:13;4.18;;;2.78;;
77302;SDS011;66363;49.828;7.856;2023-05-27T11:01:45;4.93;;;2.85;;
77302;SDS011;66363;49.828;7.856;2023-05-27T11:04:13;6.55;;;3.15;;
77302;SDS011;66363;49.828;7.856;2023-05-27T11:06:39;7.00;;;2.60;;
77302;SDS011;66363;49.828;7.856;2023-05-27T11:09:04;4.25;;;2.67;;
77302;SDS011;66363;49.828;7.856;2023-05-27T11:11:32;4.63;;;2.78;;
77302;SDS011;66363;49.828;7.856;2023-05-27T11:13:59;4.22;;;2.60;;
77302;SDS011;66363;49.828;7.856;2023-05-27T11:16:24;6.15;;;3.25;;
77302;SDS011;66363;49.828;7.856;2023-05-27T11:18:50;6.38;;;2.75;;
77302;SDS011;66363;49.828;7.856;2023-05-27T11:21:17;5.78;;;2.78;;
77302;SDS011;66363;49.828;7.856;2023-05-27T11:23:43;4.70;;;3.20;;
77302;SDS011;66363;49.828;7.856;2023-05-27T11:26:10;5.63;;;2.90;;
77302;SDS011;66363;49.828;7.856;2023-05-27T11:28:36;4.88;;;2.42;;
77302;SDS011;66363;49.828;7.856;2023-05-27T11:31:02;3.28;;;2.22;;
77302;SDS011;66363;49.828;7.856;2023-05-27T11:33:32;3.42;;;2.70;;
77302;SDS011;66363;49.828;7.856;2023-05-27T11:36:05;5.53;;;3.00;;
77302;SDS011;66363;49.828;7.856;2023-05-27T11:38:39;4.53;;;2.88;;
77302;SDS011;66363;49.828;7.856;2023-05-27T11:41:11;4.25;;;3.22;;
77302;SDS011;66363;49.828;7.856;2023-05-27T11:43:36;5.40;;;2.70;;
77302;SDS011;66363;49.828;7.856;2023-05-27T11:46:11;3.75;;;3.13;;
77302;SDS011;66363;49.828;7.856;2023-05-27T11:48:37;5.28;;;3.03;;
77302;SDS011;66363;49.828;7.856;2023-05-27T11:51:03;5.82;;;3.38;;
77302;SDS011;66363;49.828;7.856;2023-05-27T11:53:28;13.52;;;3.35;;
77302;SDS011;66363;49.828;7.856;2023-05-27T11:55:56;5.50;;;3.28;;
77302;SDS011;66363;49.828;7.856;2023-05-27T11:58:21;5.85;;;3.35;;
77302;SDS011;66363;49.828;7.856;2023-05-27T12:00:47;4.45;;;2.95;;
77302;SDS011;66363;49.828;7.856;2023-05-27T12:03:12;4.43;;;3.00;;
77302;SDS011;66363;49.828;7.856;2023-05-27T12:05:38;4.60;;;4.20;;
77302;SDS011;66363;49.828;7.856;2023-05-27T12:08:04;4.82;;;2.83;;
77302;SDS011;66363;49.828;7.856;2023-05-27T12:10:29;5.30;;;3.15;;
77302;SDS011;66363;49.828;7.856;2023-05-27T12:13:06;8.23;;;3.40;;
77302;SDS011;66363;49.828;7.856;2023-05-27T12:15:32;4.07;;;3.15;;
77302;SDS011;66363;49.828;7.856;2023-05-27T12:17:58;7.32;;;3.60;;
77302;SDS011;66363;49.828;7.856;2023-05-27T12:20:23;5.43;;;3.15;;
77302;SDS011;66363;49.828;7.856;2023-05-27T12:22:49;5.13;;;3.70;;
77302;SDS011;66363;49.828;7.856;2023-05-27T12:25:16;6.57;;;3.90;;
77302;SDS011;66363;49.828;7.856;2023-05-27T12:27:42;4.60;;;3.20;;
77302;SDS011;66363;49.828;7.856;2023-05-27T12:30:09;4.82;;;3.13;;
77302;SDS011;66363;49.828;7.856;2023-05-27T12:32:36;3.50;;;3.20;;
77302;SDS011;66363;49.828;7.856;2023-05-27T12:35:01;7.32;;;3.80;;
77302;SDS011;66363;49.828;7.856;2023-05-27T12:37:27;5.18;;;3.58;;
77302;SDS011;66363;49.828;7.856;2023-05-27T12:39:53;5.35;;;3.28;;
77302;SDS011;66363;49.828;7.856;2023-05-27T12:42:18;4.18;;;3.30;;
77302;SDS011;66363;49.828;7.856;2023-05-27T12:44:44;5.15;;;3.08;;
77302;SDS011;66363;49.828;7.856;2023-05-27T12:47:11;3.38;;;2.83;;
77302;SDS011;66363;49.828;7.856;2023-05-27T12:49:37;6.35;;;3.10;;
77302;SDS011;66363;49.828;7.856;2023-05-27T12:52:02;3.58;;;2.70;;
77302;SDS011;66363;49.828;7.856;2023-05-27T12:54:28;3.95;;;2.50;;
77302;SDS011;66363;49.828;7.856;2023-05-27T12:56:54;4.13;;;2.60;;
77302;SDS011;66363;49.828;7.856;2023-05-27T12:59:20;6.30;;;3.30;;
77302;SDS011;66363;49.828;7.856;2023-05-27T13:01:46;6.13;;;2.40;;
77302;SDS011;66363;49.828;7.856;2023-05-27T13:07:00;4.70;;;3.38;;
77302;SDS011;66363;49.828;7.856;2023-05-27T13:09:32;5.05;;;3.60;;
77302;SDS011;66363;49.828;7.856;2023-05-27T13:12:11;4.60;;;2.97;;
77302;SDS011;66363;49.828;7.856;2023-05-27T13:14:37;5.35;;;2.75;;
77302;SDS011;66363;49.828;7.856;2023-05-27T13:19:51;3.72;;;2.10;;
77302;SDS011;66363;49.828;7.856;2023-05-27T13:22:17;4.07;;;2.40;;
77302;SDS011;66363;49.828;7.856;2023-05-27T13:24:43;3.95;;;2.15;;
77302;SDS011;66363;49.828;7.856;2023-05-27T13:27:09;4.75;;;2.30;;
77302;SDS011;66363;49.828;7.856;2023-05-27T13:29:35;5.03;;;2.20;;
77302;SDS011;66363;49.828;7.856;2023-05-27T13:32:00;3.45;;;2.00;;
77302;SDS011;66363;49.828;7.856;2023-05-27T13:34:26;4.35;;;2.13;;
77302;SDS011;66363;49.828;7.856;2023-05-27T13:36:53;3.17;;;2.22;;
77302;SDS011;66363;49.828;7.856;2023-05-27T13:39:19;4.78;;;1.95;;
77302;SDS011;66363;49.828;7.856;2023-05-27T13:41:45;6.50;;;1.80;;
77302;SDS011;66363;49.828;7.856;2023-05-27T13:44:10;3.15;;;1.88;;
77302;SDS011;66363;49.828;7.856;2023-05-27T13:46:36;3.40;;;1.98;;
77302;SDS011;66363;49.828;7.856;2023-05-27T13:49:02;4.57;;;1.90;;
77302;SDS011;66363;49.828;7.856;2023-05-27T13:51:29;5.40;;;2.20;;
77302;SDS011;66363;49.828;7.856;2023-05-27T13:53:56;4.13;;;1.88;;
77302;SDS011;66363;49.828;7.856;2023-05-27T13:56:22;3.65;;;2.03;;
77302;SDS011;66363;49.828;7.856;2023-05-27T13:58:47;3.13;;;1.88;;
77302;SDS011;66363;49.828;7.856;2023-05-27T14:01:13;3.63;;;2.08;;
77302;SDS011;66363;49.828;7.856;2023-05-27T14:03:39;4.80;;;1.85;;
77302;SDS011;66363;49.828;7.856;2023-05-27T14:06:04;4.93;;;2.40;;
77302;SDS011;66363;49.828;7.856;2023-05-27T14:08:30;2.70;;;1.52;;
77302;SDS011;66363;49.828;7.856;2023-05-27T14:10:57;3.80;;;1.67;;
77302;SDS011;66363;49.828;7.856;2023-05-27T14:13:22;3.25;;;1.80;;
77302;SDS011;66363;49.828;7.856;2023-05-27T14:15:49;2.35;;;1.50;;
77302;SDS011;66363;49.828;7.856;2023-05-27T14:18:14;2.58;;;1.50;;
77302;SDS011;66363;49.828;7.856;2023-05-27T14:20:40;3.70;;;1.63;;
77302;SDS011;66363;49.828;7.856;2023-05-27T14:23:06;3.65;;;1.65;;
77302;SDS011;66363;49.828;7.856;2023-05-27T14:25:31;5.00;;;2.38;;
77302;SDS011;66363;49.828;7.856;2023-05-27T14:27:58;4.20;;;2.28;;
77302;SDS011;66363;49.828;7.856;2023-05-27T14:30:24;2.83;;;1.83;;
77302;SDS011;66363;49.828;7.856;2023-05-27T14:32:49;4.03;;;1.90;;
77302;SDS011;66363;49.828;7.856;2023-05-27T14:35:15;2.97;;;1.85;;
77302;SDS011;66363;49.828;7.856;2023-05-27T14:37:40;2.72;;;1.92;;
77302;SDS011;66363;49.828;7.856;2023-05-27T14:40:07;3.92;;;2.00;;
77302;SDS011;66363;49.828;7.856;2023-05-27T14:42:33;3.90;;;2.10;;
77302;SDS011;66363;49.828;7.856;2023-05-27T14:45:00;3.08;;;1.88;;
77302;SDS011;66363;49.828;7.856;2023-05-27T14:47:25;4.60;;;2.17;;
77302;SDS011;66363;49.828;7.856;2023-05-27T14:49:51;4.38;;;2.10;;
77302;SDS011;66363;49.828;7.856;2023-05-27T14:52:16;4.32;;;2.05;;
77302;SDS011;66363;49.828;7.856;2023-05-27T14:54:42;3.55;;;1.92;;
77302;SDS011;66363;49.828;7.856;2023-05-27T14:57:07;2.45;;;1.63;;
77302;SDS011;66363;49.828;7.856;2023-05-27T14:59:33;4.20;;;1.50;;
77302;SDS011;66363;49.828;7.856;2023-05-27T15:02:00;3.63;;;2.10;;
77302;SDS011;66363;49.828;7.856;2023-05-27T15:04:26;2.63;;;1.60;;
77302;SDS011;66363;49.828;7.856;2023-05-27T15:06:51;5.10;;;1.95;;
77302;SDS011;66363;49.828;7.856;2023-05-27T15:09:17;3.90;;;1.77;;
77302;SDS011;66363;49.828;7.856;2023-05-27T15:11:42;4.40;;;1.55;;
77302;SDS011;66363;49.828;7.856;2023-05-27T15:14:08;4.18;;;2.33;;
77302;SDS011;66363;49.828;7.856;2023-05-27T15:16:34;4.72;;;2.15;;
77302;SDS011;66363;49.828;7.856;2023-05-27T15:19:01;3.55;;;1.52;;
77302;SDS011;66363;49.828;7.856;2023-05-27T15:21:26;4.32;;;2.22;;
77302;SDS011;66363;49.828;7.856;2023-05-27T15:23:52;1.90;;;1.45;;